sensor_id;sensor_type;location;lat;lon;timestamp;P1;durP1;ratioP1;P2;durP2;ratioP2
15281;SDS011;7742;44.320;19.820;2023-12-22T00:01:22;12.63;;;12.03;;
15281;SDS011;7742;44.320;19.820;2023-12-22T00:04:04;12.00;;;11.50;;
15281;SDS011;7742;44.320;19.820;2023-12-22T00:06:32;12.37;;;11.77;;
15281;SDS011;7742;44.320;19.820;2023-12-22T00:08:59;12.60;;;11.90;;
15281;SDS011;7742;44.320;19.820;2023-12-22T00:11:26;12.10;;;11.50;;
15281;SDS011;7742;44.320;19.820;2023-12-22T00:13:57;11.90;;;11.30;;
15281;SDS011;7742;44.320;19.820;2023-12-22T00:16:24;12.37;;;11.77;;
15281;SDS011;7742;44.320;19.820;2023-12-22T00:18:53;12.60;;;12.00;;
15281;SDS011;7742;44.320;19.820;2023-12-22T00:21:24;11.90;;;11.30;;
15281;SDS011;7742;44.320;19.820;2023-12-22T00:23:59;12.10;;;11.50;;
15281;SDS011;7742;44.320;19.820;2023-12-22T00:27:02;11.80;;;11.20;;
15281;SDS011;7742;44.320;19.820;2023-12-22T00:29:29;12.10;;;11.50;;
15281;SDS011;7742;44.320;19.820;2023-12-22T00:42:03;11.60;;;11.10;;
15281;SDS011;7742;44.320;19.820;2023-12-22T00:44:31;11.17;;;10.67;;
15281;SDS011;7742;44.320;19.820;2023-12-22T00:47:17;11.77;;;11.17;;
15281;SDS011;7742;44.320;19.820;2023-12-22T00:50:21;11.50;;;10.90;;
15281;SDS011;7742;44.320;19.820;2023-12-22T00:52:48;11.47;;;10.97;;
15281;SDS011;7742;44.320;19.820;2023-12-22T00:55:15;11.63;;;11.03;;
15281;SDS011;7742;44.320;19.820;2023-12-22T00:57:55;11.87;;;11.37;;
15281;SDS011;7742;44.320;19.820;2023-12-22T01:00:40;12.60;;;12.00;;
15281;SDS011;7742;44.320;19.820;2023-12-22T01:06:15;11.50;;;10.90;;
15281;SDS011;7742;44.320;19.820;2023-12-22T01:08:42;11.80;;;11.00;;
15281;SDS011;7742;44.320;19.820;2023-12-22T01:11:09;12.63;;;12.03;;
15281;SDS011;7742;44.320;19.820;2023-12-22T01:13:38;11.27;;;10.77;;
15281;SDS011;7742;44.320;19.820;2023-12-22T01:16:05;11.43;;;10.93;;
15281;SDS011;7742;44.320;19.820;2023-12-22T01:18:32;11.30;;;10.80;;
15281;SDS011;7742;44.320;19.820;2023-12-22T01:20:59;10.90;;;10.40;;
15281;SDS011;7742;44.320;19.820;2023-12-22T01:23:26;12.00;;;11.40;;
15281;SDS011;7742;44.320;19.820;2023-12-22T01:25:53;11.67;;;11.17;;
15281;SDS011;7742;44.320;19.820;2023-12-22T01:28:20;11.63;;;11.10;;
15281;SDS011;7742;44.320;19.820;2023-12-22T01:30:48;11.80;;;11.20;;
15281;SDS011;7742;44.320;19.820;2023-12-22T01:33:15;11.33;;;10.80;;
15281;SDS011;7742;44.320;19.820;2023-12-22T01:35:42;12.30;;;11.70;;
15281;SDS011;7742;44.320;19.820;2023-12-22T01:38:09;11.93;;;11.33;;
15281;SDS011;7742;44.320;19.820;2023-12-22T01:40:36;11.83;;;11.23;;
15281;SDS011;7742;44.320;19.820;2023-12-22T01:43:04;13.27;;;12.57;;
15281;SDS011;7742;44.320;19.820;2023-12-22T01:45:31;11.97;;;11.47;;
15281;SDS011;7742;44.320;19.820;2023-12-22T01:47:59;11.60;;;11.00;;
15281;SDS011;7742;44.320;19.820;2023-12-22T01:50:26;12.00;;;11.40;;
15281;SDS011;7742;44.320;19.820;2023-12-22T01:52:53;11.37;;;10.53;;
15281;SDS011;7742;44.320;19.820;2023-12-22T01:55:21;10.17;;;9.67;;
15281;SDS011;7742;44.320;19.820;2023-12-22T01:57:48;10.63;;;10.13;;
15281;SDS011;7742;44.320;19.820;2023-12-22T02:00:15;12.50;;;11.80;;
15281;SDS011;7742;44.320;19.820;2023-12-22T02:02:43;11.30;;;10.70;;
15281;SDS011;7742;44.320;19.820;2023-12-22T02:05:21;12.50;;;11.90;;
15281;SDS011;7742;44.320;19.820;2023-12-22T02:07:56;11.50;;;11.00;;
15281;SDS011;7742;44.320;19.820;2023-12-22T02:10:24;12.70;;;12.10;;
15281;SDS011;7742;44.320;19.820;2023-12-22T02:12:50;12.20;;;11.60;;
15281;SDS011;7742;44.320;19.820;2023-12-22T02:15:17;12.60;;;12.00;;
15281;SDS011;7742;44.320;19.820;2023-12-22T02:17:46;11.53;;;11.03;;
15281;SDS011;7742;44.320;19.820;2023-12-22T02:20:16;11.63;;;11.13;;
15281;SDS011;7742;44.320;19.820;2023-12-22T02:22:45;12.00;;;11.40;;
15281;SDS011;7742;44.320;19.820;2023-12-22T02:25:17;12.33;;;11.73;;
15281;SDS011;7742;44.320;19.820;2023-12-22T02:27:58;11.40;;;10.90;;
15281;SDS011;7742;44.320;19.820;2023-12-22T02:30:26;12.30;;;11.70;;
15281;SDS011;7742;44.320;19.820;2023-12-22T02:32:59;13.30;;;12.70;;
15281;SDS011;7742;44.320;19.820;2023-12-22T02:38:58;11.53;;;11.00;;
15281;SDS011;7742;44.320;19.820;2023-12-22T02:41:25;11.17;;;10.67;;
15281;SDS011;7742;44.320;19.820;2023-12-22T02:43:52;12.23;;;11.53;;
15281;SDS011;7742;44.320;19.820;2023-12-22T02:46:20;12.00;;;11.40;;
15281;SDS011;7742;44.320;19.820;2023-12-22T02:48:47;12.03;;;11.53;;
15281;SDS011;7742;44.320;19.820;2023-12-22T02:51:14;12.03;;;11.43;;
15281;SDS011;7742;44.320;19.820;2023-12-22T02:53:41;12.80;;;12.20;;
15281;SDS011;7742;44.320;19.820;2023-12-22T02:56:09;11.97;;;11.43;;
15281;SDS011;7742;44.320;19.820;2023-12-22T02:58:36;11.97;;;11.43;;
15281;SDS011;7742;44.320;19.820;2023-12-22T03:01:03;11.97;;;11.47;;
15281;SDS011;7742;44.320;19.820;2023-12-22T03:03:30;12.17;;;11.67;;
15281;SDS011;7742;44.320;19.820;2023-12-22T03:05:57;12.53;;;11.93;;
15281;SDS011;7742;44.320;19.820;2023-12-22T03:08:24;12.27;;;11.67;;
15281;SDS011;7742;44.320;19.820;2023-12-22T03:10:51;11.80;;;11.30;;
15281;SDS011;7742;44.320;19.820;2023-12-22T03:13:19;11.63;;;11.13;;
15281;SDS011;7742;44.320;19.820;2023-12-22T03:15:46;12.10;;;11.60;;
15281;SDS011;7742;44.320;19.820;2023-12-22T03:18:13;12.93;;;12.33;;
15281;SDS011;7742;44.320;19.820;2023-12-22T03:20:40;12.20;;;11.60;;
15281;SDS011;7742;44.320;19.820;2023-12-22T03:23:07;12.90;;;12.20;;
15281;SDS011;7742;44.320;19.820;2023-12-22T03:25:34;12.70;;;12.10;;
15281;SDS011;7742;44.320;19.820;2023-12-22T03:28:01;9.50;;;9.10;;
15281;SDS011;7742;44.320;19.820;2023-12-22T03:30:30;10.17;;;9.73;;
15281;SDS011;7742;44.320;19.820;2023-12-22T03:32:57;10.40;;;9.90;;
15281;SDS011;7742;44.320;19.820;2023-12-22T03:35:24;11.60;;;11.10;;
15281;SDS011;7742;44.320;19.820;2023-12-22T03:37:51;11.13;;;10.63;;
15281;SDS011;7742;44.320;19.820;2023-12-22T03:40:18;11.50;;;10.97;;
15281;SDS011;7742;44.320;19.820;2023-12-22T03:42:45;13.20;;;12.60;;
15281;SDS011;7742;44.320;19.820;2023-12-22T03:45:12;13.00;;;12.40;;
15281;SDS011;7742;44.320;19.820;2023-12-22T03:47:41;11.90;;;11.40;;
15281;SDS011;7742;44.320;19.820;2023-12-22T03:50:08;12.00;;;11.50;;
15281;SDS011;7742;44.320;19.820;2023-12-22T03:52:35;11.77;;;11.27;;
15281;SDS011;7742;44.320;19.820;2023-12-22T03:55:02;11.80;;;11.30;;
15281;SDS011;7742;44.320;19.820;2023-12-22T03:57:31;12.00;;;11.40;;
15281;SDS011;7742;44.320;19.820;2023-12-22T03:59:58;11.67;;;11.17;;
15281;SDS011;7742;44.320;19.820;2023-12-22T04:02:38;11.67;;;11.17;;
15281;SDS011;7742;44.320;19.820;2023-12-22T04:05:09;11.93;;;11.37;;
15281;SDS011;7742;44.320;19.820;2023-12-22T04:07:43;10.60;;;10.13;;
15281;SDS011;7742;44.320;19.820;2023-12-22T04:13:24;11.30;;;10.83;;
15281;SDS011;7742;44.320;19.820;2023-12-22T04:15:50;10.80;;;10.20;;
15281;SDS011;7742;44.320;19.820;2023-12-22T04:18:17;12.70;;;12.10;;
15281;SDS011;7742;44.320;19.820;2023-12-22T04:20:46;11.97;;;11.47;;
15281;SDS011;7742;44.320;19.820;2023-12-22T04:23:15;11.53;;;11.03;;
15281;SDS011;7742;44.320;19.820;2023-12-22T04:25:42;11.90;;;11.40;;
15281;SDS011;7742;44.320;19.820;2023-12-22T04:28:08;11.93;;;11.33;;
15281;SDS011;7742;44.320;19.820;2023-12-22T04:30:35;11.50;;;11.00;;
15281;SDS011;7742;44.320;19.820;2023-12-22T04:33:03;11.63;;;11.13;;
15281;SDS011;7742;44.320;19.820;2023-12-22T04:35:30;11.23;;;10.73;;
15281;SDS011;7742;44.320;19.820;2023-12-22T04:37:58;11.73;;;11.23;;
15281;SDS011;7742;44.320;19.820;2023-12-22T04:40:25;11.53;;;11.03;;
15281;SDS011;7742;44.320;19.820;2023-12-22T04:42:53;11.77;;;11.27;;
15281;SDS011;7742;44.320;19.820;2023-12-22T04:45:20;12.23;;;11.73;;
15281;SDS011;7742;44.320;19.820;2023-12-22T04:47:47;11.80;;;11.30;;
15281;SDS011;7742;44.320;19.820;2023-12-22T04:50:14;11.90;;;11.30;;
15281;SDS011;7742;44.320;19.820;2023-12-22T04:52:41;10.93;;;10.33;;
15281;SDS011;7742;44.320;19.820;2023-12-22T04:55:09;9.40;;;8.90;;
15281;SDS011;7742;44.320;19.820;2023-12-22T04:57:36;11.50;;;11.00;;
15281;SDS011;7742;44.320;19.820;2023-12-22T05:00:03;13.47;;;12.77;;
15281;SDS011;7742;44.320;19.820;2023-12-22T05:02:33;13.23;;;12.53;;
15281;SDS011;7742;44.320;19.820;2023-12-22T05:05:00;12.13;;;11.53;;
15281;SDS011;7742;44.320;19.820;2023-12-22T05:07:33;12.77;;;12.17;;
15281;SDS011;7742;44.320;19.820;2023-12-22T05:10:00;12.90;;;12.20;;
15281;SDS011;7742;44.320;19.820;2023-12-22T05:12:29;13.07;;;12.37;;
15281;SDS011;7742;44.320;19.820;2023-12-22T05:14:56;13.30;;;12.50;;
15281;SDS011;7742;44.320;19.820;2023-12-22T05:17:27;12.90;;;12.20;;
15281;SDS011;7742;44.320;19.820;2023-12-22T05:19:54;13.50;;;12.70;;
15281;SDS011;7742;44.320;19.820;2023-12-22T05:22:21;13.40;;;12.60;;
15281;SDS011;7742;44.320;19.820;2023-12-22T05:24:48;12.93;;;12.23;;
15281;SDS011;7742;44.320;19.820;2023-12-22T05:27:25;13.60;;;12.90;;
15281;SDS011;7742;44.320;19.820;2023-12-22T05:29:53;14.33;;;13.43;;
15281;SDS011;7742;44.320;19.820;2023-12-22T05:32:20;13.60;;;12.80;;
15281;SDS011;7742;44.320;19.820;2023-12-22T05:34:49;12.83;;;12.13;;
15281;SDS011;7742;44.320;19.820;2023-12-22T05:37:19;13.40;;;12.60;;
15281;SDS011;7742;44.320;19.820;2023-12-22T05:43:23;12.80;;;12.00;;
15281;SDS011;7742;44.320;19.820;2023-12-22T05:45:51;13.63;;;12.93;;
15281;SDS011;7742;44.320;19.820;2023-12-22T05:48:21;14.63;;;13.73;;
15281;SDS011;7742;44.320;19.820;2023-12-22T05:50:49;14.53;;;13.63;;
15281;SDS011;7742;44.320;19.820;2023-12-22T05:53:19;14.40;;;13.60;;
15281;SDS011;7742;44.320;19.820;2023-12-22T05:55:46;14.10;;;13.30;;
15281;SDS011;7742;44.320;19.820;2023-12-22T05:58:14;15.63;;;14.73;;
15281;SDS011;7742;44.320;19.820;2023-12-22T06:00:41;16.10;;;15.17;;
15281;SDS011;7742;44.320;19.820;2023-12-22T06:03:09;15.03;;;14.13;;
15281;SDS011;7742;44.320;19.820;2023-12-22T06:05:36;15.10;;;14.20;;
15281;SDS011;7742;44.320;19.820;2023-12-22T06:08:04;14.53;;;13.73;;
15281;SDS011;7742;44.320;19.820;2023-12-22T06:10:31;14.30;;;13.40;;
15281;SDS011;7742;44.320;19.820;2023-12-22T06:12:57;14.17;;;13.30;;
15281;SDS011;7742;44.320;19.820;2023-12-22T06:15:28;13.87;;;13.07;;
15281;SDS011;7742;44.320;19.820;2023-12-22T06:17:55;14.63;;;13.63;;
15281;SDS011;7742;44.320;19.820;2023-12-22T06:20:24;14.00;;;13.20;;
15281;SDS011;7742;44.320;19.820;2023-12-22T06:22:51;14.20;;;13.40;;
15281;SDS011;7742;44.320;19.820;2023-12-22T06:25:19;14.23;;;13.43;;
15281;SDS011;7742;44.320;19.820;2023-12-22T06:27:47;14.20;;;13.40;;
15281;SDS011;7742;44.320;19.820;2023-12-22T06:30:31;13.93;;;13.13;;
15281;SDS011;7742;44.320;19.820;2023-12-22T06:33:21;13.47;;;12.67;;
15281;SDS011;7742;44.320;19.820;2023-12-22T06:35:49;12.90;;;12.10;;
15281;SDS011;7742;44.320;19.820;2023-12-22T06:38:18;13.40;;;12.70;;
15281;SDS011;7742;44.320;19.820;2023-12-22T06:40:46;13.37;;;12.50;;
15281;SDS011;7742;44.320;19.820;2023-12-22T06:43:13;12.80;;;12.10;;
15281;SDS011;7742;44.320;19.820;2023-12-22T06:45:40;13.50;;;12.80;;
15281;SDS011;7742;44.320;19.820;2023-12-22T06:48:07;14.47;;;13.53;;
15281;SDS011;7742;44.320;19.820;2023-12-22T06:50:34;13.60;;;12.80;;
15281;SDS011;7742;44.320;19.820;2023-12-22T06:53:03;14.60;;;13.80;;
15281;SDS011;7742;44.320;19.820;2023-12-22T06:55:30;14.40;;;13.57;;
15281;SDS011;7742;44.320;19.820;2023-12-22T06:57:57;12.27;;;11.57;;
15281;SDS011;7742;44.320;19.820;2023-12-22T07:00:24;13.77;;;13.03;;
15281;SDS011;7742;44.320;19.820;2023-12-22T07:02:51;13.87;;;13.07;;
15281;SDS011;7742;44.320;19.820;2023-12-22T07:05:33;13.40;;;12.70;;
15281;SDS011;7742;44.320;19.820;2023-12-22T07:08:04;13.40;;;12.70;;
15281;SDS011;7742;44.320;19.820;2023-12-22T07:10:32;15.90;;;14.80;;
15281;SDS011;7742;44.320;19.820;2023-12-22T07:12:58;15.50;;;14.63;;
15281;SDS011;7742;44.320;19.820;2023-12-22T07:15:25;15.80;;;14.90;;
15281;SDS011;7742;44.320;19.820;2023-12-22T07:17:53;15.97;;;14.97;;
15281;SDS011;7742;44.320;19.820;2023-12-22T07:20:20;15.57;;;14.57;;
15281;SDS011;7742;44.320;19.820;2023-12-22T07:22:47;15.47;;;14.47;;
15281;SDS011;7742;44.320;19.820;2023-12-22T07:25:16;15.87;;;14.97;;
15281;SDS011;7742;44.320;19.820;2023-12-22T07:27:44;17.60;;;16.43;;
15281;SDS011;7742;44.320;19.820;2023-12-22T07:30:11;15.80;;;14.80;;
15281;SDS011;7742;44.320;19.820;2023-12-22T07:32:41;16.53;;;15.47;;
15281;SDS011;7742;44.320;19.820;2023-12-22T07:35:09;15.77;;;14.90;;
15281;SDS011;7742;44.320;19.820;2023-12-22T07:37:36;16.53;;;15.43;;
15281;SDS011;7742;44.320;19.820;2023-12-22T07:40:03;16.30;;;15.20;;
15281;SDS011;7742;44.320;19.820;2023-12-22T07:42:31;16.43;;;15.43;;
15281;SDS011;7742;44.320;19.820;2023-12-22T07:44:58;15.83;;;14.93;;
15281;SDS011;7742;44.320;19.820;2023-12-22T07:47:25;16.50;;;15.60;;
15281;SDS011;7742;44.320;19.820;2023-12-22T07:49:52;14.37;;;13.57;;
15281;SDS011;7742;44.320;19.820;2023-12-22T07:52:19;15.47;;;14.47;;
15281;SDS011;7742;44.320;19.820;2023-12-22T07:54:45;15.83;;;14.83;;
15281;SDS011;7742;44.320;19.820;2023-12-22T07:57:13;16.70;;;15.70;;
15281;SDS011;7742;44.320;19.820;2023-12-22T07:59:41;15.00;;;14.20;;
15281;SDS011;7742;44.320;19.820;2023-12-22T08:02:08;16.00;;;15.00;;
15281;SDS011;7742;44.320;19.820;2023-12-22T08:04:36;15.27;;;14.27;;
15281;SDS011;7742;44.320;19.820;2023-12-22T08:07:03;15.37;;;14.47;;
15281;SDS011;7742;44.320;19.820;2023-12-22T08:09:30;14.83;;;13.93;;
15281;SDS011;7742;44.320;19.820;2023-12-22T08:11:58;16.50;;;15.50;;
15281;SDS011;7742;44.320;19.820;2023-12-22T08:14:25;16.00;;;15.00;;
15281;SDS011;7742;44.320;19.820;2023-12-22T08:16:53;16.83;;;15.83;;
15281;SDS011;7742;44.320;19.820;2023-12-22T08:19:20;15.70;;;14.80;;
15281;SDS011;7742;44.320;19.820;2023-12-22T08:21:47;15.63;;;14.53;;
15281;SDS011;7742;44.320;19.820;2023-12-22T08:24:14;15.27;;;14.27;;
15281;SDS011;7742;44.320;19.820;2023-12-22T08:26:41;16.40;;;15.30;;
15281;SDS011;7742;44.320;19.820;2023-12-22T08:29:07;15.50;;;14.60;;
15281;SDS011;7742;44.320;19.820;2023-12-22T08:31:34;15.57;;;14.57;;
15281;SDS011;7742;44.320;19.820;2023-12-22T08:34:03;16.67;;;15.57;;
15281;SDS011;7742;44.320;19.820;2023-12-22T08:36:30;16.57;;;15.43;;
15281;SDS011;7742;44.320;19.820;2023-12-22T08:38:57;15.63;;;14.63;;
15281;SDS011;7742;44.320;19.820;2023-12-22T08:41:24;14.90;;;14.00;;
15281;SDS011;7742;44.320;19.820;2023-12-22T08:43:52;14.63;;;13.73;;
15281;SDS011;7742;44.320;19.820;2023-12-22T08:46:19;14.83;;;13.93;;
15281;SDS011;7742;44.320;19.820;2023-12-22T08:48:45;14.87;;;13.97;;
15281;SDS011;7742;44.320;19.820;2023-12-22T08:51:14;15.23;;;14.33;;
15281;SDS011;7742;44.320;19.820;2023-12-22T08:53:41;13.07;;;12.27;;
15281;SDS011;7742;44.320;19.820;2023-12-22T08:56:08;12.63;;;11.93;;
15281;SDS011;7742;44.320;19.820;2023-12-22T08:58:34;14.83;;;13.93;;
15281;SDS011;7742;44.320;19.820;2023-12-22T09:01:01;15.20;;;14.20;;
15281;SDS011;7742;44.320;19.820;2023-12-22T09:03:28;16.10;;;15.13;;
15281;SDS011;7742;44.320;19.820;2023-12-22T09:05:56;20.83;;;19.33;;
15281;SDS011;7742;44.320;19.820;2023-12-22T09:08:25;17.20;;;16.20;;
15281;SDS011;7742;44.320;19.820;2023-12-22T09:10:52;13.90;;;13.10;;
15281;SDS011;7742;44.320;19.820;2023-12-22T09:13:19;14.03;;;13.20;;
15281;SDS011;7742;44.320;19.820;2023-12-22T09:15:46;15.43;;;14.43;;
15281;SDS011;7742;44.320;19.820;2023-12-22T09:18:14;14.37;;;13.53;;
15281;SDS011;7742;44.320;19.820;2023-12-22T09:20:41;14.50;;;13.60;;
15281;SDS011;7742;44.320;19.820;2023-12-22T09:23:07;14.53;;;13.53;;
15281;SDS011;7742;44.320;19.820;2023-12-22T09:25:36;13.47;;;12.57;;
15281;SDS011;7742;44.320;19.820;2023-12-22T09:28:04;14.63;;;13.73;;
15281;SDS011;7742;44.320;19.820;2023-12-22T09:30:31;13.53;;;12.73;;
15281;SDS011;7742;44.320;19.820;2023-12-22T09:32:58;14.70;;;13.80;;
15281;SDS011;7742;44.320;19.820;2023-12-22T09:35:25;16.30;;;15.30;;
15281;SDS011;7742;44.320;19.820;2023-12-22T09:37:52;15.43;;;14.53;;
15281;SDS011;7742;44.320;19.820;2023-12-22T09:40:19;13.40;;;12.60;;
15281;SDS011;7742;44.320;19.820;2023-12-22T09:42:48;16.47;;;15.47;;
15281;SDS011;7742;44.320;19.820;2023-12-22T09:45:16;15.03;;;14.13;;
15281;SDS011;7742;44.320;19.820;2023-12-22T09:47:43;12.97;;;12.27;;
15281;SDS011;7742;44.320;19.820;2023-12-22T09:50:11;13.43;;;12.63;;
15281;SDS011;7742;44.320;19.820;2023-12-22T09:52:38;13.37;;;12.57;;
15281;SDS011;7742;44.320;19.820;2023-12-22T09:55:07;12.93;;;12.23;;
15281;SDS011;7742;44.320;19.820;2023-12-22T09:57:35;12.13;;;11.43;;
15281;SDS011;7742;44.320;19.820;2023-12-22T10:00:04;11.07;;;10.47;;
15281;SDS011;7742;44.320;19.820;2023-12-22T10:02:33;10.20;;;9.70;;
15281;SDS011;7742;44.320;19.820;2023-12-22T10:05:00;11.33;;;10.63;;
15281;SDS011;7742;44.320;19.820;2023-12-22T10:07:27;10.70;;;10.10;;
15281;SDS011;7742;44.320;19.820;2023-12-22T10:09:54;12.80;;;12.10;;
15281;SDS011;7742;44.320;19.820;2023-12-22T10:12:22;12.33;;;11.63;;
15281;SDS011;7742;44.320;19.820;2023-12-22T10:14:49;10.80;;;10.20;;
15281;SDS011;7742;44.320;19.820;2023-12-22T10:17:18;12.03;;;11.33;;
15281;SDS011;7742;44.320;19.820;2023-12-22T10:19:45;11.27;;;10.67;;
15281;SDS011;7742;44.320;19.820;2023-12-22T10:22:12;10.90;;;10.40;;
15281;SDS011;7742;44.320;19.820;2023-12-22T10:24:39;12.20;;;11.50;;
15281;SDS011;7742;44.320;19.820;2023-12-22T10:27:07;11.70;;;11.10;;
15281;SDS011;7742;44.320;19.820;2023-12-22T10:29:34;11.97;;;11.37;;
15281;SDS011;7742;44.320;19.820;2023-12-22T10:32:01;12.87;;;12.17;;
15281;SDS011;7742;44.320;19.820;2023-12-22T10:34:30;12.60;;;12.00;;
15281;SDS011;7742;44.320;19.820;2023-12-22T10:36:58;11.10;;;10.50;;
15281;SDS011;7742;44.320;19.820;2023-12-22T10:39:26;10.90;;;10.30;;
15281;SDS011;7742;44.320;19.820;2023-12-22T10:41:53;10.93;;;10.33;;
15281;SDS011;7742;44.320;19.820;2023-12-22T10:44:20;10.43;;;9.83;;
15281;SDS011;7742;44.320;19.820;2023-12-22T10:46:50;10.70;;;10.20;;
15281;SDS011;7742;44.320;19.820;2023-12-22T10:49:17;12.33;;;11.73;;
15281;SDS011;7742;44.320;19.820;2023-12-22T10:51:45;11.63;;;11.00;;
15281;SDS011;7742;44.320;19.820;2023-12-22T10:54:12;11.17;;;10.67;;
15281;SDS011;7742;44.320;19.820;2023-12-22T10:56:39;11.20;;;10.70;;
15281;SDS011;7742;44.320;19.820;2023-12-22T10:59:07;11.20;;;10.60;;
15281;SDS011;7742;44.320;19.820;2023-12-22T11:01:34;11.00;;;10.50;;
15281;SDS011;7742;44.320;19.820;2023-12-22T11:04:05;10.50;;;10.00;;
15281;SDS011;7742;44.320;19.820;2023-12-22T11:06:33;10.80;;;10.30;;
15281;SDS011;7742;44.320;19.820;2023-12-22T11:09:02;10.90;;;10.40;;
15281;SDS011;7742;44.320;19.820;2023-12-22T11:11:33;11.23;;;10.63;;
15281;SDS011;7742;44.320;19.820;2023-12-22T11:14:00;10.67;;;10.13;;
15281;SDS011;7742;44.320;19.820;2023-12-22T11:16:28;11.30;;;10.80;;
15281;SDS011;7742;44.320;19.820;2023-12-22T11:18:55;11.70;;;11.00;;
15281;SDS011;7742;44.320;19.820;2023-12-22T11:21:22;11.23;;;10.63;;
15281;SDS011;7742;44.320;19.820;2023-12-22T11:23:49;12.33;;;11.73;;
15281;SDS011;7742;44.320;19.820;2023-12-22T11:26:18;12.23;;;11.67;;
15281;SDS011;7742;44.320;19.820;2023-12-22T11:28:46;10.20;;;9.70;;
15281;SDS011;7742;44.320;19.820;2023-12-22T11:31:13;10.27;;;9.83;;
15281;SDS011;7742;44.320;19.820;2023-12-22T11:33:43;11.17;;;10.67;;
15281;SDS011;7742;44.320;19.820;2023-12-22T11:36:10;11.10;;;10.60;;
15281;SDS011;7742;44.320;19.820;2023-12-22T11:38:37;10.53;;;10.10;;
15281;SDS011;7742;44.320;19.820;2023-12-22T11:41:04;10.60;;;10.10;;
15281;SDS011;7742;44.320;19.820;2023-12-22T11:43:33;11.70;;;11.20;;
15281;SDS011;7742;44.320;19.820;2023-12-22T11:46:02;12.13;;;11.53;;
15281;SDS011;7742;44.320;19.820;2023-12-22T11:48:29;12.70;;;12.10;;
15281;SDS011;7742;44.320;19.820;2023-12-22T11:50:56;12.13;;;11.53;;
15281;SDS011;7742;44.320;19.820;2023-12-22T11:53:23;12.33;;;11.67;;
15281;SDS011;7742;44.320;19.820;2023-12-22T11:55:57;13.40;;;12.73;;
15281;SDS011;7742;44.320;19.820;2023-12-22T11:58:35;11.90;;;11.30;;
15281;SDS011;7742;44.320;19.820;2023-12-22T12:01:03;12.00;;;11.40;;
15281;SDS011;7742;44.320;19.820;2023-12-22T12:03:30;12.17;;;11.57;;
15281;SDS011;7742;44.320;19.820;2023-12-22T12:06:09;13.93;;;13.17;;
15281;SDS011;7742;44.320;19.820;2023-12-22T12:08:36;12.87;;;12.17;;
15281;SDS011;7742;44.320;19.820;2023-12-22T12:11:03;11.13;;;10.53;;
15281;SDS011;7742;44.320;19.820;2023-12-22T12:13:32;12.20;;;11.53;;
15281;SDS011;7742;44.320;19.820;2023-12-22T12:16:01;11.50;;;10.90;;
15281;SDS011;7742;44.320;19.820;2023-12-22T12:18:28;11.13;;;10.43;;
15281;SDS011;7742;44.320;19.820;2023-12-22T12:20:55;11.30;;;10.80;;
15281;SDS011;7742;44.320;19.820;2023-12-22T12:23:23;14.10;;;13.40;;
15281;SDS011;7742;44.320;19.820;2023-12-22T12:25:53;14.20;;;13.50;;
15281;SDS011;7742;44.320;19.820;2023-12-22T12:28:24;13.13;;;12.53;;
15281;SDS011;7742;44.320;19.820;2023-12-22T12:30:56;12.70;;;12.00;;
15281;SDS011;7742;44.320;19.820;2023-12-22T12:33:26;13.70;;;13.00;;
15281;SDS011;7742;44.320;19.820;2023-12-22T12:35:53;14.97;;;14.17;;
15281;SDS011;7742;44.320;19.820;2023-12-22T12:38:21;12.40;;;11.80;;
15281;SDS011;7742;44.320;19.820;2023-12-22T12:40:48;14.40;;;13.70;;
15281;SDS011;7742;44.320;19.820;2023-12-22T12:43:16;13.23;;;12.53;;
15281;SDS011;7742;44.320;19.820;2023-12-22T12:45:43;12.40;;;11.70;;
15281;SDS011;7742;44.320;19.820;2023-12-22T12:48:11;12.70;;;11.90;;
15281;SDS011;7742;44.320;19.820;2023-12-22T12:50:43;10.97;;;10.47;;
15281;SDS011;7742;44.320;19.820;2023-12-22T12:53:10;12.20;;;11.60;;
15281;SDS011;7742;44.320;19.820;2023-12-22T12:55:37;12.83;;;12.13;;
15281;SDS011;7742;44.320;19.820;2023-12-22T12:58:04;13.80;;;13.10;;
15281;SDS011;7742;44.320;19.820;2023-12-22T13:00:32;13.43;;;12.73;;
15281;SDS011;7742;44.320;19.820;2023-12-22T13:03:01;12.80;;;12.10;;
15281;SDS011;7742;44.320;19.820;2023-12-22T13:05:29;12.40;;;11.80;;
15281;SDS011;7742;44.320;19.820;2023-12-22T13:08:07;11.27;;;10.77;;
15281;SDS011;7742;44.320;19.820;2023-12-22T13:10:34;11.57;;;11.07;;
15281;SDS011;7742;44.320;19.820;2023-12-22T13:13:01;11.90;;;11.30;;
15281;SDS011;7742;44.320;19.820;2023-12-22T13:15:28;12.00;;;11.40;;
15281;SDS011;7742;44.320;19.820;2023-12-22T13:17:55;11.40;;;10.90;;
15281;SDS011;7742;44.320;19.820;2023-12-22T13:20:22;12.13;;;11.53;;
15281;SDS011;7742;44.320;19.820;2023-12-22T13:22:49;12.27;;;11.67;;
15281;SDS011;7742;44.320;19.820;2023-12-22T13:25:17;13.20;;;12.50;;
15281;SDS011;7742;44.320;19.820;2023-12-22T13:27:46;11.17;;;10.67;;
15281;SDS011;7742;44.320;19.820;2023-12-22T13:30:13;11.63;;;11.13;;
15281;SDS011;7742;44.320;19.820;2023-12-22T13:32:40;12.40;;;11.80;;
15281;SDS011;7742;44.320;19.820;2023-12-22T13:35:07;12.40;;;11.70;;
15281;SDS011;7742;44.320;19.820;2023-12-22T13:37:40;12.20;;;11.60;;
15281;SDS011;7742;44.320;19.820;2023-12-22T13:40:08;13.00;;;12.20;;
15281;SDS011;7742;44.320;19.820;2023-12-22T13:42:36;12.33;;;11.73;;
15281;SDS011;7742;44.320;19.820;2023-12-22T13:45:04;12.20;;;11.50;;
15281;SDS011;7742;44.320;19.820;2023-12-22T13:47:39;12.77;;;12.07;;
15281;SDS011;7742;44.320;19.820;2023-12-22T13:50:12;12.60;;;12.00;;
15281;SDS011;7742;44.320;19.820;2023-12-22T13:52:39;12.00;;;11.40;;
15281;SDS011;7742;44.320;19.820;2023-12-22T13:55:10;12.03;;;11.43;;
15281;SDS011;7742;44.320;19.820;2023-12-22T13:57:38;12.00;;;11.40;;
15281;SDS011;7742;44.320;19.820;2023-12-22T14:02:47;12.90;;;12.30;;
15281;SDS011;7742;44.320;19.820;2023-12-22T14:05:14;11.57;;;10.97;;
15281;SDS011;7742;44.320;19.820;2023-12-22T14:07:41;12.00;;;11.30;;
15281;SDS011;7742;44.320;19.820;2023-12-22T14:10:10;12.20;;;11.50;;
15281;SDS011;7742;44.320;19.820;2023-12-22T14:12:39;11.97;;;11.27;;
15281;SDS011;7742;44.320;19.820;2023-12-22T14:15:06;11.60;;;11.00;;
15281;SDS011;7742;44.320;19.820;2023-12-22T14:17:33;11.30;;;10.80;;
15281;SDS011;7742;44.320;19.820;2023-12-22T14:20:00;12.40;;;11.80;;
15281;SDS011;7742;44.320;19.820;2023-12-22T14:22:27;12.30;;;11.60;;
15281;SDS011;7742;44.320;19.820;2023-12-22T14:24:54;11.13;;;10.63;;
15281;SDS011;7742;44.320;19.820;2023-12-22T15:14:01;8.10;;;7.70;;
15281;SDS011;7742;44.320;19.820;2023-12-22T15:16:28;8.60;;;8.30;;
15281;SDS011;7742;44.320;19.820;2023-12-22T15:18:55;8.40;;;7.90;;
15281;SDS011;7742;44.320;19.820;2023-12-22T15:21:22;9.40;;;9.00;;
15281;SDS011;7742;44.320;19.820;2023-12-22T15:23:49;9.67;;;9.27;;
15281;SDS011;7742;44.320;19.820;2023-12-22T15:26:21;9.80;;;9.40;;
15281;SDS011;7742;44.320;19.820;2023-12-22T15:28:48;10.80;;;10.30;;
15281;SDS011;7742;44.320;19.820;2023-12-22T15:31:17;12.03;;;11.47;;
15281;SDS011;7742;44.320;19.820;2023-12-22T15:33:43;11.20;;;10.70;;
15281;SDS011;7742;44.320;19.820;2023-12-22T15:36:10;12.00;;;11.43;;
15281;SDS011;7742;44.320;19.820;2023-12-22T15:38:42;10.57;;;10.07;;
15281;SDS011;7742;44.320;19.820;2023-12-22T15:41:09;13.00;;;12.40;;
15281;SDS011;7742;44.320;19.820;2023-12-22T15:43:36;10.67;;;10.10;;